Time;durP1;ratioP1;P1;durP2;ratioP2;P2;SDS_P1;SDS_P2;PMS_P1;PMS_P2;Temp;Humidity;BMP_temperature;BMP_pressure;BME280_temperature;BME280_humidity;BME280_pressure;Samples;Min_cycle;Max_cycle;Signal;HPM_P1;HPM_P2
2023/12/04 00:02:00;;;;;;;13.97;12.03;;;0.30;99.90;;;;;;5038192;28;20317;-64
2023/12/04 00:04:27;;;;;;;13.93;12.60;;;0.30;99.90;;;;;;5034962;28;20227;-64
2023/12/04 00:06:55;;;;;;;15.03;13.20;;;0.30;99.90;;;;;;5043661;28;20203;-62
2023/12/04 00:09:23;;;;;;;16.93;14.30;;;0.30;99.90;;;;;;5029381;28;20187;-62
2023/12/04 00:11:51;;;;;;;16.83;13.30;;;0.40;99.90;;;;;;5028202;28;20669;-62
2023/12/04 00:14:18;;;;;;;15.83;14.03;;;0.30;99.90;;;;;;5033028;28;20195;-63
2023/12/04 00:16:45;;;;;;;16.23;14.53;;;0.40;99.90;;;;;;5028674;28;20556;-63
2023/12/04 00:19:12;;;;;;;21.63;15.73;;;0.40;99.90;;;;;;5024910;28;20255;-64
2023/12/04 00:21:39;;;;;;;19.93;14.40;;;0.40;99.90;;;;;;5028230;28;20199;-64
2023/12/04 00:24:06;;;;;;;15.03;13.63;;;0.40;99.90;;;;;;5027202;28;20203;-65
2023/12/04 00:26:33;;;;;;;16.83;14.77;;;0.30;99.90;;;;;;5023601;28;20772;-65
2023/12/04 00:29:00;;;;;;;16.23;14.53;;;0.40;99.90;;;;;;5027695;28;20188;-67
2023/12/04 00:31:27;;;;;;;15.10;13.60;;;0.40;99.90;;;;;;5032700;28;20188;-67
2023/12/04 00:33:55;;;;;;;16.70;14.93;;;0.40;99.90;;;;;;5030096;28;20239;-68
2023/12/04 00:36:22;;;;;;;15.37;13.77;;;0.50;99.90;;;;;;5028276;28;20195;-66
2023/12/04 00:38:49;;;;;;;16.47;14.77;;;0.50;99.90;;;;;;5029520;28;20565;-66
2023/12/04 00:41:16;;;;;;;20.57;15.57;;;0.50;99.90;;;;;;5042090;28;20199;-66
2023/12/04 00:43:43;;;;;;;15.30;14.10;;;0.70;99.90;;;;;;5029297;28;20237;-66
2023/12/04 00:46:10;;;;;;;16.43;14.87;;;0.70;99.90;;;;;;5026477;28;20609;-66
2023/12/04 00:48:37;;;;;;;17.47;14.97;;;0.70;99.90;;;;;;5020342;28;20698;-66
2023/12/04 00:51:04;;;;;;;16.80;15.27;;;0.70;99.90;;;;;;5025292;28;20197;-65
2023/12/04 00:53:31;;;;;;;17.07;15.57;;;0.80;99.90;;;;;;5015636;28;20640;-66
2023/12/04 00:55:59;;;;;;;16.67;15.10;;;0.80;99.90;;;;;;5024854;28;20224;-65
2023/12/04 00:58:28;;;;;;;17.23;15.53;;;0.80;99.90;;;;;;5032030;28;20223;-65
2023/12/04 01:00:56;;;;;;;16.70;15.30;;;0.80;99.90;;;;;;5022751;28;20204;-66
2023/12/04 01:03:26;;;;;;;17.43;15.70;;;0.80;99.90;;;;;;5034808;28;20217;-66
2023/12/04 01:05:53;;;;;;;16.37;14.87;;;0.80;99.90;;;;;;5038461;28;20554;-67
2023/12/04 01:08:20;;;;;;;17.73;15.17;;;0.80;99.90;;;;;;5025038;28;20188;-67
2023/12/04 01:10:48;;;;;;;17.37;15.50;;;0.80;99.90;;;;;;5029392;28;21453;-67
2023/12/04 01:13:15;;;;;;;18.30;16.40;;;0.90;99.90;;;;;;5073759;28;20221;-67
2023/12/04 01:15:42;;;;;;;18.37;16.60;;;0.90;99.90;;;;;;5067559;28;20215;-67
2023/12/04 01:18:09;;;;;;;19.93;17.67;;;0.90;99.90;;;;;;5063609;28;20198;-67
2023/12/04 01:20:36;;;;;;;17.17;15.73;;;0.90;99.90;;;;;;5080715;28;20198;-68
2023/12/04 01:23:03;;;;;;;19.23;17.33;;;0.90;99.90;;;;;;5073198;28;20198;-67
2023/12/04 01:25:30;;;;;;;24.00;17.33;;;1.00;99.90;;;;;;5036513;28;20299;-66
2023/12/04 01:27:57;;;;;;;20.30;16.43;;;1.00;99.90;;;;;;5072139;28;20786;-66
2023/12/04 01:30:24;;;;;;;17.27;15.57;;;0.90;99.90;;;;;;5074934;28;20206;-66
2023/12/04 01:32:51;;;;;;;18.57;16.57;;;0.90;99.90;;;;;;5051017;28;20206;-67
2023/12/04 01:35:19;;;;;;;22.10;18.27;;;1.00;99.90;;;;;;5057713;28;20264;-67
2023/12/04 01:37:46;;;;;;;18.90;16.97;;;1.20;99.90;;;;;;5058408;28;20290;-67
2023/12/04 01:40:13;;;;;;;18.70;16.90;;;1.10;99.90;;;;;;5058792;28;20563;-67
2023/12/04 01:42:42;;;;;;;19.73;17.30;;;1.20;99.90;;;;;;5064293;28;20694;-67
2023/12/04 01:45:09;;;;;;;17.20;15.83;;;1.10;99.90;;;;;;5026878;28;20306;-67
2023/12/04 01:47:36;;;;;;;18.10;16.40;;;1.20;99.90;;;;;;5059261;28;20309;-67
2023/12/04 01:50:05;;;;;;;21.07;18.37;;;1.20;99.90;;;;;;5051350;28;20278;-67
2023/12/04 01:52:32;;;;;;;20.10;18.10;;;1.20;99.90;;;;;;5068225;28;20293;-67
2023/12/04 01:54:59;;;;;;;17.80;16.17;;;1.10;99.90;;;;;;5063576;28;23625;-68
2023/12/04 01:57:26;;;;;;;19.70;17.83;;;1.20;99.90;;;;;;5063949;28;20672;-68
2023/12/04 01:59:53;;;;;;;17.33;15.90;;;1.10;99.90;;;;;;5044743;28;20222;-68
2023/12/04 02:02:21;;;;;;;18.03;16.50;;;1.10;99.90;;;;;;5040031;28;20219;-68
2023/12/04 02:04:48;;;;;;;19.23;17.63;;;1.10;99.90;;;;;;5064184;28;20631;-68
2023/12/04 02:07:15;;;;;;;18.53;16.83;;;1.00;99.90;;;;;;5069927;28;20187;-67
2023/12/04 02:09:42;;;;;;;16.67;15.43;;;1.00;99.90;;;;;;5068426;28;20222;-68
2023/12/04 02:12:09;;;;;;;18.73;17.13;;;1.00;99.90;;;;;;5052143;28;20295;-68
2023/12/04 02:14:36;;;;;;;18.30;16.80;;;1.00;99.90;;;;;;5047147;28;20195;-68
2023/12/04 02:17:06;;;;;;;17.00;15.70;;;1.00;99.90;;;;;;5067368;28;20548;-65
2023/12/04 02:19:33;;;;;;;17.63;15.90;;;1.00;99.90;;;;;;5065594;28;20604;-64
2023/12/04 02:22:00;;;;;;;18.23;16.33;;;1.00;99.90;;;;;;5051388;28;20198;-65
2023/12/04 02:24:28;;;;;;;18.40;16.67;;;1.00;99.90;;;;;;5047958;28;20211;-64
2023/12/04 02:27:25;;;;;;;17.43;16.03;;;1.00;99.90;;;;;;5061977;28;20202;-64
2023/12/04 02:29:56;;;;;;;16.83;15.50;;;1.10;99.90;;;;;;5062832;28;20281;-65
2023/12/04 02:32:26;;;;;;;18.63;17.03;;;1.10;99.90;;;;;;5049143;28;20191;-64
2023/12/04 02:34:54;;;;;;;17.60;16.00;;;1.20;99.90;;;;;;5048378;28;20195;-64
2023/12/04 02:37:23;;;;;;;17.40;16.10;;;1.30;99.90;;;;;;5023307;28;20223;-68
2023/12/04 02:39:52;;;;;;;17.20;15.90;;;1.30;99.90;;;;;;5063372;28;20195;-68
2023/12/04 02:42:19;;;;;;;18.37;16.60;;;1.40;99.90;;;;;;5046305;28;20497;-68
2023/12/04 02:44:46;;;;;;;18.97;17.47;;;1.40;99.90;;;;;;5072248;28;20244;-68
2023/12/04 02:47:14;;;;;;;17.80;16.40;;;1.50;99.90;;;;;;5061749;28;20199;-67
2023/12/04 02:49:40;;;;;;;19.00;17.40;;;1.50;99.90;;;;;;5045177;28;20237;-68
2023/12/04 02:52:07;;;;;;;17.47;16.07;;;1.50;99.90;;;;;;5065379;28;20477;-66
2023/12/04 02:54:34;;;;;;;18.47;16.93;;;1.50;99.90;;;;;;5063506;28;20195;-67
2023/12/04 02:57:01;;;;;;;18.37;16.67;;;1.50;99.90;;;;;;5060693;28;20265;-67
2023/12/04 02:59:28;;;;;;;18.07;16.63;;;1.60;99.90;;;;;;5048086;28;20610;-66
2023/12/04 03:05:55;;;;;;;16.87;15.63;;;1.50;99.90;;;;;;5063693;28;20236;-66
2023/12/04 03:08:23;;;;;;;16.90;15.60;;;1.50;99.90;;;;;;5046012;28;20198;-66
2023/12/04 03:10:49;;;;;;;16.57;15.37;;;1.60;99.90;;;;;;5062847;28;20242;-66
2023/12/04 03:13:16;;;;;;;17.40;16.20;;;1.60;99.90;;;;;;5067779;28;20191;-66
2023/12/04 03:15:44;;;;;;;18.13;16.63;;;1.50;99.90;;;;;;5033121;28;20268;-66
2023/12/04 03:18:10;;;;;;;18.03;16.63;;;1.60;99.90;;;;;;5049959;28;20247;-67
2023/12/04 03:20:39;;;;;;;18.07;16.77;;;1.60;99.90;;;;;;5082237;28;20190;-67
2023/12/04 03:23:05;;;;;;;17.47;16.17;;;1.60;99.90;;;;;;5079271;28;20206;-67
2023/12/04 03:25:32;;;;;;;17.40;16.10;;;1.60;99.90;;;;;;5080075;28;20268;-67
2023/12/04 03:28:00;;;;;;;17.70;16.30;;;1.60;99.90;;;;;;5045440;28;20225;-68
2023/12/04 03:30:27;;;;;;;17.53;16.23;;;1.50;99.90;;;;;;5087354;28;20191;-68
2023/12/04 03:32:54;;;;;;;16.70;15.67;;;1.40;99.90;;;;;;5065233;28;20612;-68
2023/12/04 03:35:21;;;;;;;17.60;16.30;;;1.40;99.90;;;;;;5086814;28;20198;-68
2023/12/04 03:37:49;;;;;;;17.43;16.13;;;1.50;99.90;;;;;;5079449;28;20199;-68
2023/12/04 03:40:16;;;;;;;16.70;15.60;;;1.50;99.90;;;;;;5080337;28;20203;-68
2023/12/04 03:42:43;;;;;;;17.07;15.77;;;1.50;99.90;;;;;;5036587;28;20195;-68
2023/12/04 03:45:10;;;;;;;17.70;16.20;;;1.50;99.90;;;;;;5059886;28;20256;-68
2023/12/04 03:47:37;;;;;;;17.97;16.57;;;1.50;99.90;;;;;;5047454;28;20248;-68
2023/12/04 03:50:05;;;;;;;17.00;15.70;;;1.40;99.90;;;;;;5053847;28;20221;-67
2023/12/04 03:52:32;;;;;;;16.37;15.20;;;1.40;99.90;;;;;;5054048;28;20334;-68
2023/12/04 03:54:59;;;;;;;17.50;16.20;;;1.40;99.90;;;;;;5066601;28;20206;-68
2023/12/04 03:57:26;;;;;;;16.63;15.47;;;1.40;99.90;;;;;;5044105;28;20234;-69
2023/12/04 03:59:53;;;;;;;17.00;15.80;;;1.40;99.90;;;;;;5058947;28;20214;-70
2023/12/04 04:02:20;;;;;;;17.27;15.97;;;1.40;99.90;;;;;;5040342;28;20191;-70
2023/12/04 04:04:47;;;;;;;18.40;16.73;;;1.40;99.90;;;;;;5051788;28;20285;-70
2023/12/04 04:07:16;;;;;;;17.53;15.97;;;1.60;99.90;;;;;;5050703;28;20607;-70
2023/12/04 04:09:43;;;;;;;16.90;15.70;;;1.60;99.90;;;;;;5044387;28;20202;-70
2023/12/04 04:12:11;;;;;;;17.17;15.90;;;1.80;99.90;;;;;;5042840;28;20642;-70
2023/12/04 04:14:38;;;;;;;17.67;16.27;;;1.90;99.90;;;;;;5061463;28;20555;-70
2023/12/04 04:17:05;;;;;;;17.80;16.53;;;1.90;99.90;;;;;;5068105;28;20326;-70
2023/12/04 04:19:32;;;;;;;17.17;15.97;;;1.80;99.90;;;;;;5061706;28;20202;-69
2023/12/04 04:21:59;;;;;;;17.73;16.03;;;1.90;99.90;;;;;;5072627;28;20552;-70
2023/12/04 04:24:26;;;;;;;16.93;15.83;;;2.00;99.90;;;;;;5065252;28;20248;-69
2023/12/04 04:26:53;;;;;;;17.87;16.60;;;2.00;99.90;;;;;;5072801;28;20217;-70
2023/12/04 04:29:20;;;;;;;17.77;16.30;;;2.10;99.90;;;;;;5041676;28;20194;-70
2023/12/04 04:31:47;;;;;;;17.50;16.30;;;2.00;99.90;;;;;;5067822;28;20673;-70
2023/12/04 04:34:14;;;;;;;17.43;16.20;;;2.20;99.90;;;;;;5077302;28;20267;-70
2023/12/04 04:36:43;;;;;;;17.23;15.97;;;2.20;99.90;;;;;;5052289;28;20249;-67
2023/12/04 04:39:13;;;;;;;17.10;15.90;;;2.20;99.90;;;;;;5063556;28;20191;-66
2023/12/04 04:41:40;;;;;;;18.00;16.40;;;2.20;99.90;;;;;;5046132;28;20335;-66
2023/12/04 04:44:07;;;;;;;16.70;15.50;;;2.30;99.90;;;;;;5055141;28;20578;-66
2023/12/04 04:46:34;;;;;;;17.80;16.53;;;2.10;99.90;;;;;;5075800;28;20317;-65
2023/12/04 04:49:01;;;;;;;17.77;16.50;;;2.20;99.90;;;;;;5055588;28;20198;-65
2023/12/04 04:51:29;;;;;;;17.17;16.07;;;2.10;99.90;;;;;;5063757;28;20194;-65
2023/12/04 04:53:56;;;;;;;17.93;16.50;;;2.00;99.90;;;;;;5053568;28;20750;-66
2023/12/04 04:56:23;;;;;;;17.30;16.00;;;2.00;99.90;;;;;;5034334;28;20234;-71
2023/12/04 04:58:50;;;;;;;17.93;16.53;;;2.10;99.90;;;;;;5051075;28;20494;-70
2023/12/04 05:01:19;;;;;;;17.63;16.23;;;2.10;99.90;;;;;;5055645;28;20195;-69
2023/12/04 05:03:46;;;;;;;17.00;15.70;;;2.10;99.90;;;;;;5076778;28;20255;-69
2023/12/04 05:06:14;;;;;;;17.07;15.87;;;2.10;99.90;;;;;;5053293;28;20179;-69
2023/12/04 05:08:41;;;;;;;16.90;15.60;;;2.10;99.90;;;;;;5069806;28;20295;-71
2023/12/04 05:11:07;;;;;;;17.90;16.57;;;2.10;99.90;;;;;;5048724;28;20232;-70
2023/12/04 05:13:34;;;;;;;17.70;16.40;;;2.10;99.90;;;;;;5030014;28;20250;-69
2023/12/04 05:16:01;;;;;;;17.87;16.57;;;2.10;99.90;;;;;;5009337;28;20208;-69
2023/12/04 05:18:28;;;;;;;18.07;16.60;;;2.10;99.90;;;;;;5036045;28;20246;-67
2023/12/04 05:20:56;;;;;;;17.37;16.10;;;2.20;99.90;;;;;;5033076;28;20196;-69
2023/12/04 05:23:23;;;;;;;17.00;15.80;;;2.10;99.90;;;;;;5034878;28;20648;-71
2023/12/04 05:25:50;;;;;;;16.90;15.70;;;2.10;99.90;;;;;;5037495;28;20222;-70
2023/12/04 05:28:17;;;;;;;17.30;16.10;;;2.10;99.90;;;;;;5026232;28;20238;-70
2023/12/04 05:30:44;;;;;;;17.63;16.43;;;2.20;99.90;;;;;;5027522;28;20192;-69
2023/12/04 05:33:11;;;;;;;17.57;16.23;;;2.10;99.90;;;;;;5030239;28;20284;-68
2023/12/04 05:35:38;;;;;;;18.77;17.27;;;2.00;99.90;;;;;;5022319;28;20192;-67
2023/12/04 05:38:05;;;;;;;18.43;17.00;;;2.10;99.90;;;;;;5024728;28;20208;-67
2023/12/04 05:40:32;;;;;;;17.23;16.00;;;2.00;99.90;;;;;;5028197;28;20258;-67
2023/12/04 05:42:59;;;;;;;17.10;15.90;;;2.00;99.90;;;;;;5027357;28;20202;-68
2023/12/04 05:45:26;;;;;;;17.63;16.40;;;2.00;99.90;;;;;;5032445;28;20211;-67
2023/12/04 05:47:54;;;;;;;17.60;16.30;;;2.00;99.90;;;;;;5010841;28;20576;-64
2023/12/04 05:50:21;;;;;;;18.77;17.17;;;2.00;99.90;;;;;;5028365;28;20210;-65
2023/12/04 05:52:48;;;;;;;17.93;16.57;;;1.90;99.90;;;;;;5027346;28;20726;-66
2023/12/04 05:55:15;;;;;;;17.73;16.33;;;1.80;99.90;;;;;;5028764;28;20568;-64
2023/12/04 05:57:43;;;;;;;18.13;16.83;;;1.90;99.90;;;;;;5027733;28;20918;-65
2023/12/04 06:00:12;;;;;;;17.83;16.53;;;1.90;99.90;;;;;;5027045;28;20283;-65
2023/12/04 06:02:43;;;;;;;18.67;17.27;;;1.80;99.90;;;;;;5027240;28;20204;-65
2023/12/04 06:05:10;;;;;;;17.83;16.47;;;1.70;99.90;;;;;;5024528;28;20216;-64
2023/12/04 06:07:38;;;;;;;18.53;17.03;;;1.60;99.90;;;;;;5032361;28;20559;-68
2023/12/04 06:10:05;;;;;;;18.80;17.30;;;1.80;99.90;;;;;;5027990;28;20720;-68
2023/12/04 06:12:33;;;;;;;23.03;20.57;;;1.80;99.90;;;;;;5066019;28;20296;-68
2023/12/04 06:15:00;;;;;;;19.67;18.17;;;1.60;99.90;;;;;;5069171;28;20199;-68
2023/12/04 06:17:27;;;;;;;21.33;19.23;;;1.50;99.90;;;;;;5070052;28;20194;-69
2023/12/04 06:19:54;;;;;;;19.47;17.87;;;1.50;99.90;;;;;;5051376;28;20206;-68
2023/12/04 06:22:21;;;;;;;18.70;17.20;;;1.50;99.90;;;;;;5076028;28;20194;-69
2023/12/04 06:24:49;;;;;;;17.97;16.67;;;1.50;99.90;;;;;;5066852;28;20203;-68
2023/12/04 06:27:20;;;;;;;18.57;17.17;;;1.60;99.90;;;;;;5074802;28;20285;-69
2023/12/04 06:29:48;;;;;;;18.20;16.90;;;1.60;99.90;;;;;;5054331;28;20255;-69
2023/12/04 06:32:19;;;;;;;18.17;16.87;;;1.70;99.90;;;;;;5069757;28;20175;-69
2023/12/04 06:34:47;;;;;;;18.10;16.77;;;1.90;99.90;;;;;;5071685;28;20191;-69
2023/12/04 06:37:14;;;;;;;18.50;17.07;;;1.90;99.90;;;;;;5076540;28;20594;-69
2023/12/04 06:39:44;;;;;;;18.30;16.97;;;1.90;99.90;;;;;;5049729;28;20199;-69
2023/12/04 06:42:12;;;;;;;22.43;20.37;;;1.80;99.90;;;;;;5074410;28;20206;-69
2023/12/04 06:44:39;;;;;;;19.13;17.67;;;1.70;99.90;;;;;;5068572;28;20283;-69
2023/12/04 06:47:08;;;;;;;20.03;18.47;;;1.70;99.90;;;;;;5074480;28;20191;-69
2023/12/04 06:49:35;;;;;;;18.67;17.27;;;1.50;99.90;;;;;;5075918;28;20194;-69
2023/12/04 06:52:03;;;;;;;19.00;17.50;;;1.60;99.90;;;;;;5060662;28;20206;-69
2023/12/04 06:54:30;;;;;;;26.60;21.13;;;1.70;99.90;;;;;;5057411;28;20942;-69
2023/12/04 06:56:57;;;;;;;28.10;21.93;;;1.60;99.90;;;;;;5074313;28;20219;-69
2023/12/04 06:59:24;;;;;;;21.27;19.37;;;1.60;99.90;;;;;;5070684;28;20573;-69
2023/12/04 07:01:51;;;;;;;26.27;21.07;;;1.60;99.90;;;;;;5062360;28;20198;-69
2023/12/04 07:04:20;;;;;;;21.80;19.47;;;1.60;99.90;;;;;;5061533;28;20217;-69
2023/12/04 07:06:49;;;;;;;28.40;21.23;;;1.70;99.90;;;;;;5062330;28;20836;-69
2023/12/04 07:09:18;;;;;;;38.90;23.73;;;1.60;99.90;;;;;;5051530;28;20589;-68
2023/12/04 07:11:46;;;;;;;24.87;21.17;;;1.60;99.90;;;;;;5072977;28;20275;-69
2023/12/04 07:14:13;;;;;;;20.27;18.67;;;1.60;99.90;;;;;;5060715;28;20194;-69
2023/12/04 07:16:41;;;;;;;29.57;25.63;;;1.60;99.90;;;;;;5061452;28;20194;-65
2023/12/04 07:19:10;;;;;;;21.07;19.13;;;1.60;99.90;;;;;;5074126;28;20193;-65
2023/12/04 07:21:38;;;;;;;19.63;18.03;;;1.50;99.90;;;;;;5058079;28;20194;-65
2023/12/04 07:24:06;;;;;;;20.60;18.93;;;1.60;99.90;;;;;;5077526;28;20244;-66
2023/12/04 07:26:38;;;;;;;21.87;19.80;;;1.50;99.90;;;;;;5063460;28;20198;-66
2023/12/04 07:29:05;;;;;;;21.57;19.37;;;1.60;99.90;;;;;;5054716;28;20259;-64
2023/12/04 07:31:31;;;;;;;24.57;22.03;;;1.50;99.90;;;;;;5078547;28;20282;-66
2023/12/04 07:34:01;;;;;;;21.60;19.57;;;1.50;99.90;;;;;;5067115;28;20249;-67
2023/12/04 07:36:29;;;;;;;20.47;18.60;;;1.40;99.90;;;;;;5062715;28;20194;-66
2023/12/04 07:38:56;;;;;;;19.97;18.27;;;1.50;99.90;;;;;;5068264;28;20624;-68
2023/12/04 07:41:23;;;;;;;19.17;17.63;;;1.50;99.90;;;;;;5085483;28;20190;-68
2023/12/04 07:43:51;;;;;;;18.97;17.47;;;1.50;99.90;;;;;;5074551;28;20589;-67
2023/12/04 07:46:18;;;;;;;19.00;17.60;;;1.50;99.90;;;;;;5079829;28;20256;-68
2023/12/04 07:48:45;;;;;;;20.17;18.57;;;1.60;99.90;;;;;;5071167;28;20202;-68
2023/12/04 07:51:12;;;;;;;19.53;17.93;;;1.70;99.90;;;;;;5077695;28;20202;-68
2023/12/04 07:53:40;;;;;;;19.13;17.53;;;1.70;99.90;;;;;;5071255;28;20534;-69
2023/12/04 07:56:07;;;;;;;20.87;18.93;;;1.80;99.90;;;;;;5079515;28;20626;-69
2023/12/04 07:58:34;;;;;;;21.97;19.67;;;1.80;99.90;;;;;;5060172;28;20268;-69
2023/12/04 08:01:01;;;;;;;21.60;19.30;;;1.80;99.90;;;;;;5066802;28;20264;-69
2023/12/04 08:03:28;;;;;;;21.07;18.87;;;1.90;99.90;;;;;;5075159;28;20190;-69
2023/12/04 08:05:56;;;;;;;19.97;18.00;;;1.90;99.90;;;;;;5060824;28;20202;-66
2023/12/04 08:08:23;;;;;;;19.47;17.93;;;1.90;99.90;;;;;;5073897;28;20183;-66
2023/12/04 08:10:50;;;;;;;18.57;17.17;;;2.00;99.90;;;;;;5072307;28;20299;-64
2023/12/04 08:13:17;;;;;;;18.70;17.20;;;2.10;99.90;;;;;;5073049;28;20531;-65
2023/12/04 08:15:44;;;;;;;18.97;17.57;;;2.10;99.90;;;;;;5078583;28;20222;-66
2023/12/04 08:18:11;;;;;;;18.80;17.37;;;2.30;99.90;;;;;;5073878;28;20191;-67
2023/12/04 08:20:39;;;;;;;19.67;18.17;;;2.30;99.90;;;;;;5074632;28;20205;-65
2023/12/04 08:23:08;;;;;;;19.47;17.80;;;2.40;99.90;;;;;;5061487;28;20293;-66
2023/12/04 08:25:37;;;;;;;19.40;17.90;;;2.50;99.90;;;;;;5058878;28;20208;-67
2023/12/04 08:28:05;;;;;;;18.57;17.17;;;2.40;99.90;;;;;;5076681;28;20255;-68
2023/12/04 08:30:32;;;;;;;17.50;16.30;;;2.40;99.90;;;;;;5079031;28;20230;-68
2023/12/04 08:32:59;;;;;;;19.33;17.77;;;2.50;99.90;;;;;;5070413;28;20278;-67
2023/12/04 08:35:26;;;;;;;18.87;17.37;;;2.50;99.90;;;;;;5053379;28;20198;-67
2023/12/04 08:37:53;;;;;;;19.00;17.57;;;2.40;99.90;;;;;;5077964;28;20203;-68
2023/12/04 08:40:21;;;;;;;18.60;17.10;;;2.40;99.90;;;;;;5073628;28;20190;-69
2023/12/04 08:42:48;;;;;;;18.17;16.87;;;2.40;99.90;;;;;;5073459;28;20252;-69
2023/12/04 08:45:15;;;;;;;19.40;17.90;;;2.40;99.90;;;;;;5059557;28;20207;-66
2023/12/04 08:47:44;;;;;;;19.43;17.90;;;2.40;99.90;;;;;;5079545;28;20191;-66
2023/12/04 08:50:11;;;;;;;18.60;17.23;;;2.50;99.90;;;;;;5064204;28;20708;-66
2023/12/04 08:52:41;;;;;;;19.43;17.93;;;2.50;99.90;;;;;;5086418;28;20225;-67
2023/12/04 08:55:09;;;;;;;19.03;17.53;;;2.40;99.90;;;;;;5060422;28;20717;-68
2023/12/04 08:57:36;;;;;;;18.17;16.77;;;2.50;99.90;;;;;;5077936;28;20708;-68
2023/12/04 09:00:04;;;;;;;18.67;17.20;;;2.50;99.90;;;;;;5070350;28;20616;-68
2023/12/04 09:02:31;;;;;;;18.73;17.33;;;2.50;99.90;;;;;;5055670;28;20210;-67
2023/12/04 09:04:59;;;;;;;18.37;16.93;;;2.60;99.90;;;;;;5078131;28;20662;-68
2023/12/04 09:07:27;;;;;;;17.87;16.53;;;2.60;99.90;;;;;;5086448;28;20269;-67
2023/12/04 09:10:13;;;;;;;18.07;16.67;;;2.70;99.90;;;;;;5044884;28;20671;-68
2023/12/04 09:13:00;;;;;;;17.97;16.73;;;2.70;99.90;;;;;;5069692;28;20194;-66
2023/12/04 09:15:27;;;;;;;18.83;17.27;;;2.90;99.90;;;;;;5059425;28;20302;-69
2023/12/04 09:17:55;;;;;;;18.10;16.80;;;2.80;99.90;;;;;;5071663;28;20191;-71
2023/12/04 09:20:22;;;;;;;18.83;17.33;;;2.70;99.90;;;;;;5074931;28;20220;-70
2023/12/04 09:22:49;;;;;;;18.83;17.33;;;2.70;99.90;;;;;;5076831;28;20355;-71
2023/12/04 09:25:23;;;;;;;18.57;16.93;;;2.70;99.90;;;;;;5052742;28;20602;-71
2023/12/04 09:27:50;;;;;;;17.83;16.53;;;2.60;99.90;;;;;;5082273;28;20189;-69
2023/12/04 09:30:17;;;;;;;18.00;16.70;;;2.60;99.90;;;;;;5068728;28;20195;-69
2023/12/04 09:32:44;;;;;;;18.30;16.90;;;2.60;99.90;;;;;;5081438;28;20533;-70
2023/12/04 09:35:12;;;;;;;18.37;16.97;;;2.70;99.90;;;;;;5059516;28;20264;-69
2023/12/04 09:37:39;;;;;;;18.67;17.17;;;2.70;99.90;;;;;;5065663;28;20230;-71
2023/12/04 09:40:08;;;;;;;18.50;17.10;;;2.70;99.90;;;;;;5083630;28;20910;-70
2023/12/04 09:42:35;;;;;;;18.00;16.70;;;2.70;99.90;;;;;;5044615;28;20212;-70
2023/12/04 09:45:03;;;;;;;18.00;16.60;;;2.70;99.90;;;;;;5085048;28;20307;-71
2023/12/04 09:47:31;;;;;;;17.83;16.53;;;2.70;99.90;;;;;;5081853;28;20186;-67
2023/12/04 09:49:59;;;;;;;18.33;17.03;;;2.80;99.90;;;;;;5076275;28;20717;-67
2023/12/04 09:52:30;;;;;;;18.20;16.80;;;2.80;99.90;;;;;;5083212;28;20540;-67
2023/12/04 09:54:57;;;;;;;18.27;16.97;;;2.80;99.90;;;;;;5060847;28;20186;-66
2023/12/04 09:57:25;;;;;;;18.63;17.27;;;2.80;99.90;;;;;;5074815;28;20290;-66
2023/12/04 09:59:52;;;;;;;19.10;17.67;;;2.80;99.90;;;;;;5086713;28;20221;-66
2023/12/04 10:02:21;;;;;;;17.67;16.37;;;2.70;99.90;;;;;;5058849;28;20582;-67
2023/12/04 10:04:48;;;;;;;17.77;16.57;;;2.70;99.90;;;;;;5072344;28;20513;-71
2023/12/04 10:07:16;;;;;;;18.00;16.70;;;2.70;99.90;;;;;;5081114;28;20256;-70
2023/12/04 10:09:43;;;;;;;18.37;16.97;;;2.60;99.90;;;;;;5065643;28;20294;-70
2023/12/04 10:12:10;;;;;;;18.80;17.30;;;2.60;99.90;;;;;;5078878;28;20567;-69
2023/12/04 10:14:37;;;;;;;19.23;17.33;;;2.60;99.90;;;;;;5082853;28;20206;-72
2023/12/04 10:17:16;;;;;;;18.70;17.20;;;2.70;99.90;;;;;;5037571;28;20297;-67
2023/12/04 10:19:42;;;;;;;18.20;16.70;;;2.70;99.90;;;;;;5066916;28;20710;-68
2023/12/04 10:22:10;;;;;;;18.73;17.23;;;2.60;99.90;;;;;;5075664;28;20606;-67
2023/12/04 10:24:38;;;;;;;18.17;16.80;;;2.60;99.90;;;;;;5081744;28;20203;-72
2023/12/04 10:27:11;;;;;;;17.90;16.60;;;2.60;99.90;;;;;;5083509;28;20229;-72
2023/12/04 10:29:49;;;;;;;18.40;17.10;;;2.70;99.90;;;;;;5086823;28;20357;-72
2023/12/04 10:32:22;;;;;;;19.90;18.20;;;2.70;99.90;;;;;;5079032;28;20284;-71
2023/12/04 10:34:49;;;;;;;20.10;18.20;;;2.80;99.90;;;;;;5074256;28;20697;-72
2023/12/04 10:37:16;;;;;;;19.67;17.97;;;2.90;99.90;;;;;;5051582;28;20297;-72
2023/12/04 10:39:49;;;;;;;20.63;18.67;;;2.90;99.90;;;;;;5046650;28;20287;-67
2023/12/04 10:42:27;;;;;;;20.10;18.30;;;2.90;99.90;;;;;;5070527;28;20259;-68
2023/12/04 10:44:58;;;;;;;22.53;20.23;;;3.00;99.90;;;;;;5070129;28;20652;-72
2023/12/04 10:47:26;;;;;;;20.43;18.67;;;2.90;99.90;;;;;;5063459;28;20214;-74
2023/12/04 10:49:54;;;;;;;19.63;18.00;;;3.00;99.90;;;;;;5068799;28;20199;-72
2023/12/04 10:52:22;;;;;;;19.77;18.07;;;2.90;99.90;;;;;;5072332;28;20290;-64
2023/12/04 10:54:49;;;;;;;19.47;17.90;;;3.00;99.90;;;;;;5052076;28;20567;-65
2023/12/04 10:57:40;;;;;;;19.13;17.63;;;3.00;99.90;;;;;;5052961;28;20242;-66
2023/12/04 11:00:10;;;;;;;19.50;17.90;;;2.90;99.90;;;;;;5041956;28;20196;-66
2023/12/04 11:02:46;;;;;;;18.83;17.40;;;2.90;99.90;;;;;;5067612;28;20194;-65
2023/12/04 11:05:21;;;;;;;19.13;17.73;;;2.90;99.90;;;;;;5070190;28;20677;-66
2023/12/04 11:07:52;;;;;;;18.83;17.37;;;2.90;99.90;;;;;;5071867;28;20186;-66
2023/12/04 11:10:51;;;;;;;19.70;18.10;;;2.90;99.90;;;;;;5070613;28;20489;-65
2023/12/04 11:13:23;;;;;;;20.37;18.77;;;2.90;99.90;;;;;;5053096;28;20214;-66
2023/12/04 11:15:53;;;;;;;18.63;17.30;;;3.00;99.90;;;;;;5053938;28;20309;-66
2023/12/04 11:18:23;;;;;;;18.67;17.30;;;3.00;99.90;;;;;;5076541;28;20185;-65
2023/12/04 11:20:58;;;;;;;18.77;17.23;;;3.00;99.90;;;;;;5059516;28;20191;-68
2023/12/04 11:23:26;;;;;;;18.70;17.30;;;3.10;99.90;;;;;;5057322;28;20434;-67
2023/12/04 11:25:54;;;;;;;19.03;17.27;;;3.10;99.90;;;;;;5074571;28;20272;-67
2023/12/04 11:28:21;;;;;;;18.63;17.13;;;3.20;99.90;;;;;;5077100;28;20749;-66
2023/12/04 11:30:50;;;;;;;18.30;16.90;;;3.20;99.90;;;;;;5067461;28;20202;-66
2023/12/04 11:33:17;;;;;;;17.97;16.63;;;3.20;99.90;;;;;;5063781;28;20195;-67
2023/12/04 11:35:45;;;;;;;18.73;17.27;;;3.20;99.90;;;;;;5041649;28;20272;-67
2023/12/04 11:38:16;;;;;;;18.53;17.13;;;3.20;99.90;;;;;;5071507;28;20210;-67
2023/12/04 11:40:43;;;;;;;19.13;17.70;;;3.30;99.90;;;;;;5048394;28;20740;-69
2023/12/04 11:43:27;;;;;;;19.03;17.50;;;3.30;99.90;;;;;;5071897;28;20203;-69
2023/12/04 11:46:10;;;;;;;19.03;17.63;;;3.30;99.90;;;;;;5069452;28;20210;-69
2023/12/04 11:48:38;;;;;;;19.17;17.77;;;3.30;99.90;;;;;;5069564;28;20189;-69
2023/12/04 11:51:08;;;;;;;18.30;16.80;;;3.40;99.90;;;;;;5053111;28;20615;-69
2023/12/04 11:53:43;;;;;;;19.50;17.80;;;3.40;99.90;;;;;;5071321;28;20210;-69
2023/12/04 11:56:12;;;;;;;18.73;17.43;;;3.40;99.90;;;;;;5064002;28;20195;-66
2023/12/04 11:58:43;;;;;;;18.50;17.20;;;3.40;99.90;;;;;;5069108;28;20858;-67
2023/12/04 12:01:10;;;;;;;18.50;17.10;;;3.30;99.90;;;;;;5048141;28;20295;-67
2023/12/04 12:03:37;;;;;;;19.00;17.53;;;3.30;99.90;;;;;;5066613;28;20252;-66
2023/12/04 12:06:05;;;;;;;18.57;17.10;;;3.40;99.90;;;;;;5077517;28;20210;-67
2023/12/04 12:08:32;;;;;;;18.67;17.27;;;3.50;99.90;;;;;;5051450;28;20733;-66
2023/12/04 12:10:59;;;;;;;18.60;17.20;;;3.50;99.90;;;;;;5049082;28;20235;-67
2023/12/04 12:13:26;;;;;;;18.90;17.40;;;3.50;99.90;;;;;;5062731;28;20275;-71
2023/12/04 12:15:53;;;;;;;19.57;17.87;;;3.60;99.90;;;;;;5070581;28;20226;-69
2023/12/04 12:18:23;;;;;;;18.93;17.43;;;3.60;99.90;;;;;;5070170;28;20191;-73
2023/12/04 12:20:50;;;;;;;18.70;17.20;;;3.60;99.90;;;;;;5078316;28;20198;-70
2023/12/04 12:23:17;;;;;;;18.63;17.23;;;3.50;99.90;;;;;;5080046;28;20744;-70
2023/12/04 12:25:44;;;;;;;19.00;17.50;;;3.50;99.90;;;;;;5068273;28;20290;-71
2023/12/04 12:28:11;;;;;;;18.70;17.13;;;3.60;99.90;;;;;;5021921;28;20273;-67
2023/12/04 12:30:38;;;;;;;18.90;17.40;;;3.50;99.90;;;;;;5052778;28;20199;-67
2023/12/04 12:33:05;;;;;;;18.53;17.03;;;3.60;99.90;;;;;;5069149;28;20696;-67
2023/12/04 12:35:32;;;;;;;18.10;16.80;;;3.60;99.90;;;;;;5067780;28;20191;-67
2023/12/04 12:37:59;;;;;;;18.20;16.90;;;3.60;99.90;;;;;;5067881;28;20195;-67
2023/12/04 12:40:29;;;;;;;18.30;16.67;;;3.60;99.90;;;;;;5067484;28;20886;-67
2023/12/04 12:43:09;;;;;;;18.73;17.33;;;3.50;99.90;;;;;;5067134;28;20203;-67
2023/12/04 12:45:42;;;;;;;19.03;17.53;;;3.50;99.90;;;;;;5062517;28;20272;-71